Time;durP1;ratioP1;P1;durP2;ratioP2;P2;SDS_P1;SDS_P2;PMS_P1;PMS_P2;Temp;Humidity;BMP_temperature;BMP_pressure;BME280_temperature;BME280_humidity;BME280_pressure;Samples;Min_cycle;Max_cycle;Signal;HPM_P1;HPM_P2
2022/12/22 03:25:55;;;;;;;;;;;;;;;18.14;69.18;98900.84;2076583;28;19969;-72
2022/12/22 03:26:56;;;;;;;;;;;;;;;18.13;69.17;98902.69;2075627;28;19936;-72
2022/12/22 03:28:01;;;;;;;;;;;;;;;18.14;69.01;98895.47;2078129;28;19932;-72
2022/12/22 03:29:03;;;;;;;;;;;;;;;18.13;68.95;98896.47;2075640;28;20514;-71
2022/12/22 03:30:05;;;;;;;;;;;;;;;18.14;69.07;98903.53;2074686;28;21097;-71
2022/12/22 03:31:06;;;;;;;;;;;;;;;18.12;69.05;98900.19;2075948;28;20301;-71
2022/12/22 03:32:07;;;;;;;;;;;;;;;18.13;68.76;98901.84;2076885;28;19935;-71
2022/12/22 03:33:08;;;;;;;;;;;;;;;18.09;69.08;98896.88;2073055;28;19994;-71
2022/12/22 03:34:09;;;;;;;;;;;;;;;18.09;69.24;98896.88;2074016;28;19971;-72
2022/12/22 03:35:10;;;;;;;;;;;;;;;18.11;68.76;98893.16;2080001;28;20353;-72
2022/12/22 03:36:11;;;;;;;;;;;;;;;18.09;68.80;98898.72;2072956;28;19931;-72
2022/12/22 03:37:12;;;;;;;;;;;;;;;18.08;68.61;98895.22;2075114;28;20313;-71
2022/12/22 03:38:13;;;;;;;;;;;;;;;18.08;68.73;98899.78;2076537;28;19928;-71
2022/12/22 03:39:14;;;;;;;;;;;;;;;18.07;68.42;98893.53;2078226;28;19947;-72
2022/12/22 03:40:16;;;;;;;;;;;;;;;18.06;69.27;98899.94;2070350;28;20545;-71
2022/12/22 03:46:31;;;;;;;;;;;;;;;18.04;69.04;98880.50;2078045;28;19925;-72
2022/12/22 03:47:31;;;;;;;;;;;;;;;18.03;69.08;98881.56;2074122;28;20017;-72
2022/12/22 03:48:33;;;;;;;;;;;;;;;18.05;68.97;98873.28;2073678;28;19924;-71
2022/12/22 03:49:33;;;;;;;;;;;;;;;18.03;69.09;98873.50;2075817;28;19967;-72
2022/12/22 03:50:35;;;;;;;;;;;;;;;18.04;69.05;98877.81;2077343;28;19936;-72
2022/12/22 03:51:36;;;;;;;;;;;;;;;18.04;69.10;98872.47;2079889;28;19924;-72
2022/12/22 03:52:37;;;;;;;;;;;;;;;18.02;68.89;98879.88;2080636;28;19989;-71
2022/12/22 03:53:38;;;;;;;;;;;;;;;18.01;68.97;98878.22;2074955;28;19935;-73
2022/12/22 03:54:39;;;;;;;;;;;;;;;18.01;68.89;98883.59;2077437;28;19936;-73
2022/12/22 03:55:40;;;;;;;;;;;;;;;18.01;68.95;98888.13;2075747;28;19932;-72
2022/12/22 03:56:42;;;;;;;;;;;;;;;18.00;69.34;98881.94;2079704;28;19921;-72
2022/12/22 03:57:42;;;;;;;;;;;;;;;18.01;69.11;98888.13;2080007;28;19948;-72
2022/12/22 03:58:44;;;;;;;;;;;;;;;18.00;69.01;98890.00;2073304;28;20246;-73
2022/12/22 03:59:45;;;;;;;;;;;;;;;17.99;69.07;98884.81;2071095;28;20444;-73
2022/12/22 04:00:47;;;;;;;;;;;;;;;17.99;68.69;98888.31;2078211;28;19921;-72
2022/12/22 04:01:50;;;;;;;;;;;;;;;18.01;68.91;98891.63;2074484;28;20493;-73
2022/12/22 04:02:50;;;;;;;;;;;;;;;17.99;69.32;98888.31;2074644;28;19921;-72
2022/12/22 04:03:51;;;;;;;;;;;;;;;18.00;69.04;98889.16;2068395;28;20370;-72
2022/12/22 04:04:52;;;;;;;;;;;;;;;17.98;68.98;98888.53;2079801;28;20376;-72
2022/12/22 04:05:53;;;;;;;;;;;;;;;17.98;68.85;98888.53;2078909;28;19925;-72
2022/12/22 04:06:54;;;;;;;;;;;;;;;18.00;69.06;98883.78;2070050;28;20671;-72
2022/12/22 04:07:55;;;;;;;;;;;;;;;18.01;68.69;98888.13;2071092;28;19994;-72
2022/12/22 04:08:56;;;;;;;;;;;;;;;18.01;68.92;98888.94;2072777;28;19947;-72
2022/12/22 04:12:55;;;;;;;;;;;;;;;17.96;69.00;98882.50;2066940;28;19924;-71
2022/12/22 04:13:55;;;;;;;;;;;;;;;17.94;69.09;98887.22;2078718;28;19924;-72
2022/12/22 04:14:57;;;;;;;;;;;;;;;17.93;69.27;98886.41;2075106;28;20377;-72
2022/12/22 04:15:58;;;;;;;;;;;;;;;17.93;69.16;98875.66;2079501;28;19924;-72
2022/12/22 04:17:00;;;;;;;;;;;;;;;17.91;69.07;98883.06;2076475;28;20841;-72
2022/12/22 04:18:00;;;;;;;;;;;;;;;17.94;69.20;98887.22;2078771;28;19944;-72
2022/12/22 04:19:02;;;;;;;;;;;;;;;17.92;69.12;98879.38;2079696;28;19998;-72
2022/12/22 04:20:03;;;;;;;;;;;;;;;17.93;68.93;98890.94;2077003;28;19932;-72
2022/12/22 04:21:05;;;;;;;;;;;;;;;17.93;68.85;98891.78;2077685;28;19925;-72
2022/12/22 04:22:06;;;;;;;;;;;;;;;17.94;69.01;98881.88;2075606;28;20266;-71
2022/12/22 04:23:07;;;;;;;;;;;;;;;17.92;69.20;98889.31;2075349;28;19985;-72
2022/12/22 04:24:08;;;;;;;;;;;;;;;17.90;69.30;98892.16;2076036;28;19997;-72
2022/12/22 04:25:09;;;;;;;;;;;;;;;17.94;69.23;98893.44;2076817;28;19959;-72
2022/12/22 04:26:10;;;;;;;;;;;;;;;17.92;69.19;98892.81;2073097;28;20458;-72
2022/12/22 04:27:11;;;;;;;;;;;;;;;17.91;69.17;98893.81;2076292;28;19974;-72
2022/12/22 04:28:12;;;;;;;;;;;;;;;17.91;68.73;98893.81;2077901;28;19966;-71
2022/12/22 04:29:13;;;;;;;;;;;;;;;17.91;68.77;98893.00;2075219;28;19924;-71
2022/12/22 04:30:14;;;;;;;;;;;;;;;17.91;68.99;98893.00;2075615;28;19925;-72
2022/12/22 04:31:17;;;;;;;;;;;;;;;17.90;68.91;98897.53;2074750;28;19921;-72
2022/12/22 04:32:17;;;;;;;;;;;;;;;17.89;69.08;98895.88;2074302;28;19924;-72
2022/12/22 04:33:22;;;;;;;;;;;;;;;17.90;69.25;98892.16;2075026;28;19986;-71
2022/12/22 04:34:22;;;;;;;;;;;;;;;17.86;69.14;98890.91;2078813;28;19925;-71
2022/12/22 04:35:24;;;;;;;;;;;;;;;17.88;69.00;98882.63;2078723;28;19935;-72
2022/12/22 04:36:25;;;;;;;;;;;;;;;17.88;69.04;98885.31;2077109;28;19995;-72
2022/12/22 04:37:26;;;;;;;;;;;;;;;17.86;69.13;98878.31;2075503;28;19935;-72
2022/12/22 04:38:27;;;;;;;;;;;;;;;17.85;69.30;98868.56;2079089;28;19927;-72
2022/12/22 04:39:28;;;;;;;;;;;;;;;17.86;69.09;98875.63;2077328;28;20535;-72
2022/12/22 04:40:29;;;;;;;;;;;;;;;17.86;69.75;98881.00;2075875;28;19935;-72
2022/12/22 04:41:30;;;;;;;;;;;;;;;17.86;69.12;98878.31;2078200;28;19985;-72
2022/12/22 04:42:31;;;;;;;;;;;;;;;17.85;69.68;98878.50;2076665;28;19920;-72
2022/12/22 04:43:32;;;;;;;;;;;;;;;17.82;69.30;98878.88;2076047;28;20720;-72
2022/12/22 04:44:33;;;;;;;;;;;;;;;17.82;69.24;98873.50;2075321;28;19935;-72
2022/12/22 04:45:34;;;;;;;;;;;;;;;17.82;69.11;98877.00;2073697;28;19928;-72
2022/12/22 04:46:36;;;;;;;;;;;;;;;17.82;69.50;98877.00;2078258;28;19928;-72
2022/12/22 04:47:37;;;;;;;;;;;;;;;17.82;69.15;98868.16;2072813;28;20305;-73
2022/12/22 04:48:38;;;;;;;;;;;;;;;17.83;69.19;98859.91;2076460;28;19974;-72
2022/12/22 04:49:39;;;;;;;;;;;;;;;17.83;69.51;98861.78;2073841;28;20412;-72
2022/12/22 04:50:40;;;;;;;;;;;;;;;17.85;69.04;98865.06;2077468;28;19974;-72
2022/12/22 04:51:41;;;;;;;;;;;;;;;17.92;69.30;98865.16;2077894;28;19925;-72
2022/12/22 04:52:42;;;;;;;;;;;;;;;17.93;69.18;98862.25;2074753;28;19925;-72
2022/12/22 04:53:43;;;;;;;;;;;;;;;17.95;69.24;98865.59;2078626;28;19920;-72
2022/12/22 04:54:44;;;;;;;;;;;;;;;17.99;69.37;98861.47;2072264;28;21203;-72
2022/12/22 04:55:45;;;;;;;;;;;;;;;18.07;69.29;98871.25;2070554;28;19936;-72
2022/12/22 04:56:47;;;;;;;;;;;;;;;18.09;69.42;98867.34;2075149;28;19928;-71
2022/12/22 04:57:47;;;;;;;;;;;;;;;18.17;69.41;98866.38;2075025;28;19920;-72
2022/12/22 04:58:49;;;;;;;;;;;;;;;18.23;68.98;98864.78;2076096;28;20370;-72
2022/12/22 04:59:49;;;;;;;;;;;;;;;18.25;69.20;98862.72;2075077;28;19973;-72
2022/12/22 05:00:51;;;;;;;;;;;;;;;18.33;69.21;98869.78;2077220;28;19921;-72
2022/12/22 05:01:53;;;;;;;;;;;;;;;18.36;68.86;98872.94;2077362;28;19990;-72
2022/12/22 05:02:54;;;;;;;;;;;;;;;18.40;69.25;98876.03;2071828;28;19933;-72
2022/12/22 05:03:55;;;;;;;;;;;;;;;18.44;68.98;98879.97;2073575;28;20246;-71
2022/12/22 05:04:56;;;;;;;;;;;;;;;18.48;69.01;98876.72;2072907;28;20020;-72
2022/12/22 05:05:57;;;;;;;;;;;;;;;18.51;68.96;98873.63;2073922;28;20722;-71
2022/12/22 05:06:58;;;;;;;;;;;;;;;18.53;68.97;98870.75;2075884;28;19929;-71
2022/12/22 05:07:58;;;;;;;;;;;;;;;18.57;68.89;98874.69;2077755;28;20326;-72
2022/12/22 05:09:00;;;;;;;;;;;;;;;18.61;68.92;98869.75;2075622;28;19978;-72
2022/12/22 05:10:00;;;;;;;;;;;;;;;18.62;68.78;98874.13;2072864;28;20019;-72
2022/12/22 05:11:02;;;;;;;;;;;;;;;18.66;68.73;98875.38;2073397;28;19925;-72
2022/12/22 05:12:53;;;;;;;;;;;;;;;18.66;68.61;98875.38;2075050;28;19936;-72
2022/12/22 05:13:25;;;;;;;;;;;;;;;18.69;69.02;98870.44;2079310;28;21015;-72
2022/12/22 05:14:25;;;;;;;;;;;;;;;18.70;68.51;98866.72;2075690;28;20856;-72
2022/12/22 05:15:28;;;;;;;;;;;;;;;18.72;68.62;98863.81;2073166;28;19921;-72
2022/12/22 05:16:28;;;;;;;;;;;;;;;18.75;68.72;98858.94;2074397;28;19936;-72
2022/12/22 05:17:31;;;;;;;;;;;;;;;18.74;68.50;98862.63;2075938;28;20051;-72
2022/12/22 05:18:32;;;;;;;;;;;;;;;18.76;68.59;98857.06;2074457;28;19924;-72
2022/12/22 05:19:34;;;;;;;;;;;;;;;18.86;68.06;98849.47;2068840;28;19925;-71
2022/12/22 05:20:34;;;;;;;;;;;;;;;18.93;68.04;98853.00;2071374;28;19924;-72
2022/12/22 05:21:36;;;;;;;;;;;;;;;18.90;68.27;98845.34;2067592;28;19921;-71
2022/12/22 05:22:36;;;;;;;;;;;;;;;18.90;68.13;98849.91;2069953;28;20016;-72
2022/12/22 05:23:38;;;;;;;;;;;;;;;18.95;68.29;98856.34;2075389;28;19940;-72
2022/12/22 05:24:38;;;;;;;;;;;;;;;18.95;68.07;98858.19;2069799;28;19967;-72
2022/12/22 05:25:40;;;;;;;;;;;;;;;18.95;67.91;98858.19;2070722;28;19924;-71
2022/12/22 05:26:40;;;;;;;;;;;;;;;18.97;68.06;98856.13;2072989;28;19929;-73
2022/12/22 05:27:42;;;;;;;;;;;;;;;18.96;68.26;98866.03;2070442;28;19946;-72
2022/12/22 05:28:45;;;;;;;;;;;;;;;19.01;67.97;98867.31;2074863;28;19924;-74
2022/12/22 05:29:45;;;;;;;;;;;;;;;18.97;68.00;98862.34;2076275;28;20285;-74
2022/12/22 05:30:47;;;;;;;;;;;;;;;19.03;68.09;98873.28;2074282;28;19944;-73
2022/12/22 05:31:47;;;;;;;;;;;;;;;19.04;67.74;98869.59;2066318;28;21464;-73
2022/12/22 05:32:50;;;;;;;;;;;;;;;19.05;68.18;98868.56;2074875;28;19933;-73
2022/12/22 05:33:50;;;;;;;;;;;;;;;19.06;67.92;98870.25;2069064;28;19978;-73
2022/12/22 05:34:52;;;;;;;;;;;;;;;19.08;67.76;98868.16;2072736;28;19937;-73
2022/12/22 05:35:52;;;;;;;;;;;;;;;19.12;67.74;98869.44;2077332;28;19921;-73
2022/12/22 05:36:54;;;;;;;;;;;;;;;19.10;67.76;98871.47;2073102;28;19935;-72
2022/12/22 05:37:54;;;;;;;;;;;;;;;19.14;67.95;98880.81;2073577;28;19967;-68
2022/12/22 05:38:56;;;;;;;;;;;;;;;19.29;67.01;98870.72;2070729;28;19975;-70
2022/12/22 05:39:56;;;;;;;;;;;;;;;19.37;67.41;98870.53;2076478;28;20024;-73
2022/12/22 05:40:58;;;;;;;;;;;;;;;19.48;67.03;98879.88;2073458;28;19939;-69
2022/12/22 05:41:58;;;;;;;;;;;;;;;19.45;67.42;98871.41;2072798;28;19927;-73
2022/12/22 05:43:00;;;;;;;;;;;;;;;19.40;67.47;98878.19;2075837;28;20585;-72
2022/12/22 05:44:00;;;;;;;;;;;;;;;19.39;67.58;98871.16;2077511;28;19929;-73
2022/12/22 05:45:03;;;;;;;;;;;;;;;19.35;67.56;98875.28;2079269;28;19932;-74
2022/12/22 05:46:05;;;;;;;;;;;;;;;19.32;67.55;98885.63;2077822;28;19931;-73
2022/12/22 05:47:06;;;;;;;;;;;;;;;19.30;67.64;98882.31;2073342;28;19932;-72
2022/12/22 05:48:09;;;;;;;;;;;;;;;19.28;67.67;98885.22;2077933;28;19933;-72
2022/12/22 05:49:09;;;;;;;;;;;;;;;19.27;67.56;98882.72;2074811;28;19929;-72
2022/12/22 05:50:12;;;;;;;;;;;;;;;19.27;67.50;98894.28;2073871;28;19952;-72
2022/12/22 05:51:12;;;;;;;;;;;;;;;19.29;67.51;98886.84;2075106;28;20580;-72
2022/12/22 05:52:13;;;;;;;;;;;;;;;19.28;67.46;98890.59;2069982;28;19956;-73
2022/12/22 05:53:14;;;;;;;;;;;;;;;19.28;67.46;98890.59;2073209;28;19920;-73
2022/12/22 05:54:15;;;;;;;;;;;;;;;19.26;67.31;98884.56;2071459;28;19920;-74
2022/12/22 05:55:16;;;;;;;;;;;;;;;19.27;67.19;98883.53;2066269;28;19933;-74
2022/12/22 05:56:18;;;;;;;;;;;;;;;19.27;67.56;98882.72;2072787;28;19940;-73
2022/12/22 05:57:18;;;;;;;;;;;;;;;19.27;67.13;98880.00;2067113;28;19948;-73
2022/12/22 05:58:20;;;;;;;;;;;;;;;19.28;66.95;98881.66;2066329;28;20396;-74
2022/12/22 05:59:20;;;;;;;;;;;;;;;19.31;67.13;98874.03;2068593;28;19932;-73
2022/12/22 06:00:22;;;;;;;;;;;;;;;19.31;66.97;98879.41;2062636;28;20004;-71
2022/12/22 06:01:23;;;;;;;;;;;;;;;19.31;67.18;98886.66;2073815;28;19928;-72
2022/12/22 06:02:25;;;;;;;;;;;;;;;19.30;67.00;98885.81;2066747;28;19924;-73
2022/12/22 06:03:26;;;;;;;;;;;;;;;19.33;66.69;98890.78;2077235;28;19928;-74
2022/12/22 06:04:28;;;;;;;;;;;;;;;19.34;66.60;98895.16;2075910;28;19924;-74
2022/12/22 06:05:28;;;;;;;;;;;;;;;19.34;66.96;98894.31;2078763;28;19931;-75
2022/12/22 06:06:30;;;;;;;;;;;;;;;19.33;66.67;98890.78;2067823;28;20336;-74
2022/12/22 06:07:30;;;;;;;;;;;;;;;19.31;66.80;98887.50;2070004;28;20892;-74
2022/12/22 06:08:32;;;;;;;;;;;;;;;19.33;66.88;98893.47;2070996;28;19978;-74
2022/12/22 06:09:32;;;;;;;;;;;;;;;19.33;66.69;98882.72;2068090;28;19932;-74
2022/12/22 06:10:34;;;;;;;;;;;;;;;19.34;66.42;98888.94;2076719;28;19924;-74
2022/12/22 06:11:35;;;;;;;;;;;;;;;19.36;66.64;98892.25;2069213;28;19952;-74
2022/12/22 06:12:36;;;;;;;;;;;;;;;19.34;66.71;98883.56;2070799;28;19927;-74
2022/12/22 06:13:37;;;;;;;;;;;;;;;19.33;66.58;98889.97;2070120;28;20347;-74
2022/12/22 06:14:38;;;;;;;;;;;;;;;19.31;66.60;98886.66;2071843;28;19961;-74
2022/12/22 06:15:39;;;;;;;;;;;;;;;19.34;66.75;98892.47;2073558;28;20207;-73
2022/12/22 06:16:40;;;;;;;;;;;;;;;19.40;66.97;98875.50;2069385;28;19967;-71
2022/12/22 06:17:41;;;;;;;;;;;;;;;19.51;66.16;98875.97;2072424;28;20129;-72
2022/12/22 06:18:43;;;;;;;;;;;;;;;19.53;66.10;98873.88;2071848;28;19924;-74
2022/12/22 06:19:45;;;;;;;;;;;;;;;19.56;65.77;98868.13;2072616;28;19967;-73
2022/12/22 06:20:45;;;;;;;;;;;;;;;19.57;65.48;98872.44;2075263;28;19929;-72
2022/12/22 06:21:47;;;;;;;;;;;;;;;19.59;65.73;98875.78;2071983;28;19925;-75
2022/12/22 06:22:48;;;;;;;;;;;;;;;19.58;65.64;98872.22;2076432;28;19940;-74
2022/12/22 06:23:49;;;;;;;;;;;;;;;19.58;65.49;98876.78;2077026;28;19936;-72
2022/12/22 06:24:50;;;;;;;;;;;;;;;19.59;65.42;98873.91;2071495;28;19956;-72
2022/12/22 06:25:54;;;;;;;;;;;;;;;19.59;65.38;98878.47;2069742;28;22011;-73
2022/12/22 06:26:56;;;;;;;;;;;;;;;19.58;65.23;98874.91;2067885;28;19973;-72
2022/12/22 06:27:56;;;;;;;;;;;;;;;19.58;65.17;98869.53;2074903;28;20923;-73
2022/12/22 06:28:58;;;;;;;;;;;;;;;19.58;65.55;98861.47;2069342;28;20008;-73
2022/12/22 06:29:58;;;;;;;;;;;;;;;19.62;65.62;98869.97;2070833;28;20180;-73
2022/12/22 06:31:00;;;;;;;;;;;;;;;19.58;65.36;98876.78;2073985;28;20009;-73
2022/12/22 06:32:00;;;;;;;;;;;;;;;19.58;65.31;98874.09;2074287;28;20689;-73
2022/12/22 06:33:02;;;;;;;;;;;;;;;19.59;65.59;98881.97;2071525;28;20006;-72
2022/12/22 06:34:04;;;;;;;;;;;;;;;19.58;65.25;98880.28;2073449;28;19924;-73
2022/12/22 06:35:06;;;;;;;;;;;;;;;19.57;65.30;98884.03;2071566;28;19956;-73
2022/12/22 06:36:07;;;;;;;;;;;;;;;19.58;65.38;98887.53;2070551;28;20434;-72
2022/12/22 06:37:09;;;;;;;;;;;;;;;19.58;65.38;98880.28;2074142;28;20400;-73
2022/12/22 06:38:09;;;;;;;;;;;;;;;19.57;65.62;98875.97;2075021;28;20949;-72
2022/12/22 06:39:11;;;;;;;;;;;;;;;19.59;65.64;98878.47;2077233;28;19943;-72
2022/12/22 06:40:11;;;;;;;;;;;;;;;19.58;65.82;98879.47;2071686;28;19929;-73
2022/12/22 06:41:13;;;;;;;;;;;;;;;19.60;65.52;98882.78;2068997;28;19929;-72
2022/12/22 06:43:33;;;;;;;;;;;;;;;19.70;65.58;98893.22;2072628;28;19932;-73
2022/12/22 06:44:33;;;;;;;;;;;;;;;19.68;65.62;98882.63;2074159;28;20362;-73
2022/12/22 06:45:35;;;;;;;;;;;;;;;19.68;65.69;98888.03;2076977;28;20027;-74
2022/12/22 06:46:35;;;;;;;;;;;;;;;19.69;65.99;98892.34;2072192;28;19927;-73
2022/12/22 06:47:37;;;;;;;;;;;;;;;19.68;65.80;98889.88;2067186;28;19936;-74
2022/12/22 06:48:37;;;;;;;;;;;;;;;19.64;65.45;98886.75;2074505;28;19983;-75
2022/12/22 06:49:41;;;;;;;;;;;;;;;19.55;66.04;98888.78;2072840;28;20047;-78
2022/12/22 06:50:41;;;;;;;;;;;;;;;19.57;66.04;98885.91;2071552;28;19920;-78
2022/12/22 06:51:43;;;;;;;;;;;;;;;19.50;65.73;98885.91;2073330;28;20520;-78
2022/12/22 06:52:43;;;;;;;;;;;;;;;19.48;66.03;98885.25;2067107;28;19925;-76
2022/12/22 06:53:45;;;;;;;;;;;;;;;19.46;65.91;98879.25;2076304;28;19921;-77
2022/12/22 06:54:45;;;;;;;;;;;;;;;19.45;66.12;98876.78;2063630;28;20060;-77
2022/12/22 06:55:47;;;;;;;;;;;;;;;19.41;65.81;98879.03;2077180;28;21355;-77
2022/12/22 06:56:47;;;;;;;;;;;;;;;19.37;66.01;98873.22;2078520;28;20078;-76
2022/12/22 06:57:49;;;;;;;;;;;;;;;19.35;66.03;98877.16;2072817;28;19979;-77
2022/12/22 06:58:49;;;;;;;;;;;;;;;19.33;66.23;98871.97;2076794;28;19933;-78
2022/12/22 06:59:51;;;;;;;;;;;;;;;19.32;66.17;98877.56;2077198;28;19920;-78
2022/12/22 07:00:55;;;;;;;;;;;;;;;19.29;66.20;98880.66;2078617;28;20023;-76
2022/12/22 07:01:56;;;;;;;;;;;;;;;19.25;66.03;98893.69;2067367;28;20381;-79
2022/12/22 07:02:57;;;;;;;;;;;;;;;19.24;66.07;98888.50;2067632;28;19928;-76
2022/12/22 07:03:58;;;;;;;;;;;;;;;19.25;66.02;98893.69;2074988;28;20393;-78
2022/12/22 07:05:01;;;;;;;;;;;;;;;19.22;66.12;98896.75;2070620;28;19928;-77
2022/12/22 07:06:01;;;;;;;;;;;;;;;19.20;66.27;98893.44;2075630;28;19921;-78
2022/12/22 07:07:03;;;;;;;;;;;;;;;19.19;66.01;98884.56;2072897;28;19982;-78
2022/12/22 07:08:03;;;;;;;;;;;;;;;19.15;66.11;98887.84;2075387;28;20002;-78
2022/12/22 07:09:05;;;;;;;;;;;;;;;19.15;66.32;98888.66;2076216;28;19928;-77
2022/12/22 07:10:06;;;;;;;;;;;;;;;19.15;66.23;98880.59;2072741;28;19931;-78
2022/12/22 07:11:08;;;;;;;;;;;;;;;19.13;66.17;98889.91;2066599;28;20009;-77
2022/12/22 07:12:08;;;;;;;;;;;;;;;19.12;66.16;98886.38;2075618;28;19924;-77
2022/12/22 07:13:19;;;;;;;;;;;;;;;19.10;66.16;98880.38;2072660;28;23732;-77
2022/12/22 07:14:19;;;;;;;;;;;;;;;19.10;66.32;98893.00;2070179;28;20729;-77
2022/12/22 07:15:21;;;;;;;;;;;;;;;19.09;66.28;98888.66;2079118;28;19963;-77
2022/12/22 07:16:21;;;;;;;;;;;;;;;19.05;66.04;98884.69;2075313;28;19924;-77
2022/12/22 07:17:23;;;;;;;;;;;;;;;19.05;66.03;98890.06;2072442;28;19983;-79
2022/12/22 07:18:23;;;;;;;;;;;;;;;19.05;65.97;98890.88;2076595;28;19925;-78
2022/12/22 07:19:25;;;;;;;;;;;;;;;19.07;66.13;98883.47;2071631;28;19935;-78
2022/12/22 07:20:27;;;;;;;;;;;;;;;19.03;66.12;98887.59;2076442;28;20473;-77
2022/12/22 07:21:28;;;;;;;;;;;;;;;19.03;65.85;98884.03;2062169;28;19958;-77
2022/12/22 07:22:29;;;;;;;;;;;;;;;19.03;66.30;98886.75;2067397;28;20058;-77
2022/12/22 07:23:30;;;;;;;;;;;;;;;19.00;65.96;98888.00;2067183;28;20368;-77
2022/12/22 07:24:31;;;;;;;;;;;;;;;18.98;66.30;98885.50;2074300;28;19970;-76
2022/12/22 07:25:33;;;;;;;;;;;;;;;18.97;66.18;98883.00;2080296;28;20529;-77
2022/12/22 07:26:34;;;;;;;;;;;;;;;18.93;66.24;98879.88;2072801;28;19982;-77
2022/12/22 07:27:35;;;;;;;;;;;;;;;18.93;66.20;98882.56;2072483;28;20470;-78
2022/12/22 07:28:37;;;;;;;;;;;;;;;18.92;66.18;98877.41;2079515;28;19925;-77
2022/12/22 07:29:40;;;;;;;;;;;;;;;18.92;66.17;98875.53;2071630;28;19924;-77
2022/12/22 07:30:41;;;;;;;;;;;;;;;18.93;66.02;98879.88;2072466;28;19929;-78
2022/12/22 07:31:42;;;;;;;;;;;;;;;18.88;66.05;98879.66;2073931;28;20281;-78
2022/12/22 07:32:42;;;;;;;;;;;;;;;18.90;66.01;98882.16;2069593;28;19931;-78
2022/12/22 07:33:44;;;;;;;;;;;;;;;18.90;66.01;98871.41;2072540;28;19966;-78
2022/12/22 07:34:45;;;;;;;;;;;;;;;18.88;66.29;98871.59;2075629;28;19937;-77
2022/12/22 07:35:48;;;;;;;;;;;;;;;18.88;66.07;98873.44;2074754;28;20018;-78
2022/12/22 07:36:49;;;;;;;;;;;;;;;18.87;66.09;98875.31;2072382;28;20186;-77
2022/12/22 07:37:50;;;;;;;;;;;;;;;18.86;66.16;98865.59;2062106;28;19986;-78
2022/12/22 07:38:51;;;;;;;;;;;;;;;18.86;66.17;98865.59;2067622;28;20350;-78
2022/12/22 07:39:52;;;;;;;;;;;;;;;18.85;65.91;98869.28;2071658;28;20015;-76
2022/12/22 07:40:57;;;;;;;;;;;;;;;18.84;66.03;98872.19;2071881;28;20011;-77
2022/12/22 07:43:16;;;;;;;;;;;;;;;18.83;66.04;98874.03;2065654;28;19925;-78
2022/12/22 07:44:18;;;;;;;;;;;;;;;18.82;65.99;98879.63;2073740;28;20102;-77
2022/12/22 07:45:20;;;;;;;;;;;;;;;18.79;66.18;98870.09;2070129;28;20355;-77
2022/12/22 07:46:20;;;;;;;;;;;;;;;18.77;66.31;98874.00;2074266;28;19971;-78
2022/12/22 07:47:22;;;;;;;;;;;;;;;18.76;66.03;98875.88;2071272;28;19928;-78
2022/12/22 07:51:17;;;;;;;;;;;;;;;18.77;66.32;98880.22;2047651;28;20581;-78
2022/12/22 07:52:18;;;;;;;;;;;;;;;18.75;66.14;98884.97;2047744;28;19932;-78
2022/12/22 07:53:19;;;;;;;;;;;;;;;18.75;66.06;98874.22;2054164;28;19945;-77
2022/12/22 07:54:20;;;;;;;;;;;;;;;18.74;65.98;98877.94;2053475;28;19933;-77
2022/12/22 07:55:21;;;;;;;;;;;;;;;18.72;66.00;98871.88;2055585;28;20015;-77
2022/12/22 07:56:22;;;;;;;;;;;;;;;18.70;66.12;98871.28;2049898;28;19993;-76
2022/12/22 07:57:25;;;;;;;;;;;;;;;18.68;66.07;98874.16;2076889;28;19929;-76
2022/12/22 07:58:25;;;;;;;;;;;;;;;18.69;66.02;98873.13;2075322;28;20723;-76
2022/12/22 07:59:27;;;;;;;;;;;;;;;18.68;66.12;98876.81;2077938;28;19929;-77
2022/12/22 08:00:28;;;;;;;;;;;;;;;18.68;66.02;98879.50;2071899;28;19989;-78
2022/12/22 08:01:29;;;;;;;;;;;;;;;18.68;65.90;98892.94;2074261;28;19924;-78
2022/12/22 08:02:30;;;;;;;;;;;;;;;18.64;66.20;98885.50;2080061;28;19921;-76
2022/12/22 08:03:31;;;;;;;;;;;;;;;18.64;66.26;98885.50;2076365;28;19968;-78
2022/12/22 08:04:32;;;;;;;;;;;;;;;18.65;66.10;98887.16;2072799;28;19936;-77
2022/12/22 08:05:34;;;;;;;;;;;;;;;18.63;66.04;98886.50;2075886;28;19967;-78
2022/12/22 08:06:36;;;;;;;;;;;;;;;18.63;66.29;98891.88;2070424;28;20011;-77
2022/12/22 08:07:37;;;;;;;;;;;;;;;18.61;66.11;98892.09;2072611;28;20947;-76
2022/12/22 08:08:39;;;;;;;;;;;;;;;18.61;66.17;98899.31;2069890;28;19929;-76
2022/12/22 08:09:40;;;;;;;;;;;;;;;18.59;66.05;98893.31;2072183;28;20796;-76
2022/12/22 08:10:41;;;;;;;;;;;;;;;18.60;66.15;98894.97;2073336;28;19929;-78
2022/12/22 08:11:42;;;;;;;;;;;;;;;18.59;66.09;98893.31;2069516;28;20040;-76
2022/12/22 08:12:44;;;;;;;;;;;;;;;18.54;66.43;98885.84;2064686;28;20606;-78
2022/12/22 08:13:45;;;;;;;;;;;;;;;18.56;66.28;98882.97;2071870;28;19924;-77
2022/12/22 08:14:47;;;;;;;;;;;;;;;18.54;66.37;98889.34;2074684;28;21305;-76
2022/12/22 08:15:48;;;;;;;;;;;;;;;18.53;66.38;98886.88;2072039;28;19944;-77
2022/12/22 08:16:50;;;;;;;;;;;;;;;18.54;66.34;98880.47;2065567;28;20044;-76
2022/12/22 08:17:52;;;;;;;;;;;;;;;18.52;66.28;98877.97;2073524;28;19929;-77
2022/12/22 08:18:52;;;;;;;;;;;;;;;18.51;66.38;98870.94;2074879;28;19929;-76
2022/12/22 08:19:54;;;;;;;;;;;;;;;18.51;66.37;98872.81;2065970;28;19935;-77
2022/12/22 08:20:54;;;;;;;;;;;;;;;18.50;66.40;98880.03;2068919;28;19929;-76
2022/12/22 08:21:57;;;;;;;;;;;;;;;18.49;66.23;98883.72;2068773;28;19924;-77
2022/12/22 08:22:58;;;;;;;;;;;;;;;18.50;66.32;98895.34;2067491;28;19982;-77
2022/12/22 08:23:59;;;;;;;;;;;;;;;18.48;66.19;98892.81;2068839;28;21202;-76
2022/12/22 08:25:00;;;;;;;;;;;;;;;18.47;66.33;98899.25;2072105;28;19924;-77
2022/12/22 08:26:04;;;;;;;;;;;;;;;18.46;66.28;98897.56;2070362;28;20550;-77
2022/12/22 08:27:10;;;;;;;;;;;;;;;18.46;66.55;98896.72;2068535;28;19928;-78
2022/12/22 08:28:14;;;;;;;;;;;;;;;18.43;66.44;98876.47;2069778;28;19924;-77
2022/12/22 08:29:17;;;;;;;;;;;;;;;18.44;66.17;98883.53;2067665;28;19970;-77
2022/12/22 08:30:18;;;;;;;;;;;;;;;18.44;66.07;98872.78;2073214;28;19924;-76
2022/12/22 08:31:20;;;;;;;;;;;;;;;18.46;66.05;98870.69;2069723;28;19928;-78
2022/12/22 08:32:21;;;;;;;;;;;;;;;18.43;66.10;98881.00;2073894;28;19929;-75
2022/12/22 08:33:23;;;;;;;;;;;;;;;18.40;66.37;98874.19;2067427;28;20600;-76
2022/12/22 08:34:24;;;;;;;;;;;;;;;18.40;66.35;98884.09;2063698;28;20289;-78
2022/12/22 08:35:25;;;;;;;;;;;;;;;18.39;66.41;98885.97;2071233;28;20603;-77
2022/12/22 08:36:26;;;;;;;;;;;;;;;18.40;66.36;98881.41;2074308;28;19929;-76
2022/12/22 08:37:32;;;;;;;;;;;;;;;18.37;66.38;98885.31;2074254;28;20026;-76
2022/12/22 08:38:34;;;;;;;;;;;;;;;18.38;66.38;98892.34;2075555;28;19929;-78
2022/12/22 08:39:38;;;;;;;;;;;;;;;18.36;66.16;98894.41;2072224;28;20060;-77
2022/12/22 08:40:42;;;;;;;;;;;;;;;18.36;66.44;98901.59;2070867;28;20389;-76
2022/12/22 08:41:49;;;;;;;;;;;;;;;18.38;66.54;98907.63;2068204;28;19928;-78
2022/12/22 08:42:52;;;;;;;;;;;;;;;18.35;66.08;98913.38;2070502;28;19968;-76
2022/12/22 08:43:54;;;;;;;;;;;;;;;18.33;66.41;98916.28;2070435;28;19960;-78
2022/12/22 08:44:56;;;;;;;;;;;;;;;18.32;66.22;98922.66;2076195;28;20007;-77
2022/12/22 08:45:56;;;;;;;;;;;;;;;18.33;66.24;98918.97;2070952;28;19924;-76
2022/12/22 08:46:59;;;;;;;;;;;;;;;18.32;66.40;98928.03;2072907;28;20039;-77
2022/12/22 08:47:59;;;;;;;;;;;;;;;18.31;66.40;98929.06;2072006;28;19925;-77
2022/12/22 08:49:01;;;;;;;;;;;;;;;18.29;66.26;98929.25;2080490;28;20005;-77
2022/12/22 08:50:02;;;;;;;;;;;;;;;18.29;66.20;98928.41;2065393;28;20053;-77
2022/12/22 08:51:04;;;;;;;;;;;;;;;18.30;66.17;98927.38;2073238;28;19928;-78
2022/12/22 08:52:05;;;;;;;;;;;;;;;18.30;66.15;98932.75;2077992;28;20346;-77
2022/12/22 08:53:08;;;;;;;;;;;;;;;18.29;66.33;98939.16;2079352;28;19924;-78
2022/12/22 08:54:09;;;;;;;;;;;;;;;18.27;66.21;98936.66;2074774;28;20374;-77
2022/12/22 08:55:10;;;;;;;;;;;;;;;18.28;66.31;98934.81;2072316;28;19975;-77
2022/12/22 08:56:11;;;;;;;;;;;;;;;18.25;66.43;98941.41;2073477;28;19932;-77
2022/12/22 08:57:12;;;;;;;;;;;;;;;18.24;66.40;98937.03;2071966;28;19959;-77
2022/12/22 08:58:13;;;;;;;;;;;;;;;18.25;66.52;98944.09;2071032;28;20612;-77
2022/12/22 08:59:15;;;;;;;;;;;;;;;18.23;66.38;98937.25;2068899;28;19935;-78